Lindenberg, Germany

10:32 PM CEST on July 24, 2014 (GMT +0200)
IBRANDEN31 Elev 154 ft | 52.28 °N, 13.79 °E | Change Station

Current weather conditions updated 1 second ago

Light Rain
Light Rain
62.1 °F
Feels Like 62.1 °F
N
0.2
Wind Variable Wind from West
Gusts 2.5 mph

Tomorrow is forecast to be Warmer than today. Rain and thunder.

Today
High -- | Low -- °F
--% Chance of Precip.
Yesterday
High -- | Low -- °F
Precip. -- in
5:12 AM 9:07 PM
Waning Crescent, 4% visible
Pressure 29.98 in
Visibility 6.2 miles
Clouds Few 600 ft
Scattered Clouds 3100 ft
Overcast 6000 ft
Dew Point 62 °F
Humidity 98%
Rainfall 0.39 in
Snow Depth Not available.
UV 0.0 out of 12
Pollen Not available.
Air Quality Not available.
Flu Activity Not available.
METAR EDDB 242020Z 34009KT 9999 -RA FEW006 SCT031 OVC060 17/15 Q1015 NOSIG

More Conditions Fewer Conditions

Pressure 29.98 in
Visibility 6.2 miles
Clouds Few 600 ft
Scattered Clouds 3100 ft
Overcast 6000 ft
Dew Point 62 °F
Humidity 98%
Rainfall 0.39 in
Snow Depth Not available.
UV 0.0 out of 12
Pollen Not available.
Air Quality Not available.
Flu Activity Not available.
METAR EDDB 242020Z 34009KT 9999 -RA FEW006 SCT031 OVC060 17/15 Q1015 NOSIG

More Conditions Fewer Conditions

10-Day Weather Forecast

Almanac

Astronomy

Jul. 24, 2014 Rise Set
Actual Time 5:12 AM CEST 9:07 PM CEST
Civil Twilight 4:28 AM CEST 9:50 PM CEST
Nautical Twilight 3:26 AM CEST 10:51 PM CEST
Astronomical Twilight 1:42 AM CEST 12:56 AM CEST
Moon 3:08 AM CEST 7:05 PM CEST
Length of Visible Light 17h 22m
Length of Day
15h 54m
Tomorrow will be 2m 52s shorter.
Waning Crescent, 4% of the Moon is Illuminated
Today
Waning Crescent
Jul 26
New
Aug 3
First Quarter
Aug 10
Full
Aug 17
Last Quarter

Today's Extremes

Country Highs Country Lows

Community

WunderPhotos

Upload Photos

1,737,123 photos uploaded!

Nearby

Snow Depth

Not available.

Earthquake Activity

City Distance Mag. Time & Date
No recent earthquake activity has been reported nearby.
Minimum magnitude displayed is 2.5.

Coastal Water Temperatures

Place Temperature
No Stations Reporting

Nearby Weather Stations

Station Location Temp. Dew Point Humidity Wind Precip. Elev Updated Type
Wiesengrund, Fuerstenwalde 63.7 °F - - North  at  0.0 mph 0.04 in / hr 157 ft 10:03 PM CEST Normal
Heidesee 62.1 °F 62 °F 98% West  at  0.2 mph 0.07 in / hr 154 ft 10:32 PM CEST Rapid Fire
Boossen inland, Frankfurt (Oder) 62.8 °F 60 °F 92% West  at  3.4 mph 0.00 in / hr 240 ft 10:32 PM CEST Rapid Fire
Frankfurt (Oder) 62.4 °F 61 °F 96% NNW  at  3.5 mph 0.02 in / hr 213 ft 10:19 PM CEST Normal
Miersdorf, Zeuthen 62.8 °F 60 °F 93% North  at  - - / hr 157 ft 10:20 PM CEST Normal
Berlin Rahnsdorf 63.3 °F 58 °F 84% NNW  at  0.0 mph 0.00 in / hr 112 ft 10:30 PM CEST Normal
Eisenhüttenstadt 62.2 °F 61 °F 97% WNW  at  2.9 mph 0.00 in / hr 128 ft 10:32 PM CEST Rapid Fire

Show More Stations Show Fewer Stations